Clarksville, Michigan
Current Conditions -  °F | °C
As of 8:14 AM on Saturday 22 Nov 2014 (Local Time) from KY70 Reporting Station
Unknown Precip Unknown Precip  
Wind Chill: 25°   Ceiling: 900
Heat Index: 34°   Visibility: 4mi
Dew Point: 32°   Wind: 13mph
Humidity: 94%   Direction: 220°SW
Pressure: 30.03"   Gusts: NA
Location:  42.84°N, 85.24°W
Report Text: KY70 221314Z AUTO 22011KT 4SM UP OVC009 01/00 A3003 RMK AO2 T00100002
Loading
Personal Weather Stations






























Interactive Weather Map New forecast layout! Learn more

10-Day Weather Forecast

Advertisements
Track Severe Weather on mobile